Map

Track Data

SID SEASON NUMBER BASIN SUBBASIN NAME ISO_TIME NATURE LAT LON WMO_WIND WMO_PRES WMO_AGENCY TRACK_TYPE DIST2LAND LANDFALL IFLAG USA_AGENCY USA_ATCF_ID USA_LAT USA_LON USA_RECORD USA_STATUS USA_WIND USA_PRES USA_SSHS USA_R34_NE USA_R34_SE USA_R34_SW USA_R34_NW USA_R50_NE USA_R50_SE USA_R50_SW USA_R50_NW USA_R64_NE USA_R64_SE USA_R64_SW USA_R64_NW USA_POCI USA_ROCI USA_RMW USA_EYE TOKYO_LAT TOKYO_LON TOKYO_GRADE TOKYO_WIND TOKYO_PRES TOKYO_R50_DIR TOKYO_R50_LONG TOKYO_R50_SHORT TOKYO_R30_DIR TOKYO_R30_LONG TOKYO_R30_SHORT TOKYO_LAND CMA_LAT CMA_LON CMA_CAT CMA_WIND CMA_PRES HKO_LAT HKO_LON HKO_CAT HKO_WIND HKO_PRES NEWDELHI_LAT NEWDELHI_LON NEWDELHI_GRADE NEWDELHI_WIND NEWDELHI_PRES NEWDELHI_CI NEWDELHI_DP NEWDELHI_POCI REUNION_LAT REUNION_LON REUNION_TYPE REUNION_WIND REUNION_PRES REUNION_TNUM REUNION_CI REUNION_RMW REUNION_R34_NE REUNION_R34_SE REUNION_R34_SW REUNION_R34_NW REUNION_R50_NE REUNION_R50_SE REUNION_R50_SW REUNION_R50_NW REUNION_R64_NE REUNION_R64_SE REUNION_R64_SW REUNION_R64_NW BOM_LAT BOM_LON BOM_TYPE BOM_WIND BOM_PRES BOM_TNUM BOM_CI BOM_RMW BOM_R34_NE BOM_R34_SE BOM_R34_SW BOM_R34_NW BOM_R50_NE BOM_R50_SE BOM_R50_SW BOM_R50_NW BOM_R64_NE BOM_R64_SE BOM_R64_SW BOM_R64_NW BOM_ROCI BOM_POCI BOM_EYE BOM_POS_METHOD BOM_PRES_METHOD NADI_LAT NADI_LON NADI_CAT NADI_WIND NADI_PRES WELLINGTON_LAT WELLINGTON_LON WELLINGTON_WIND WELLINGTON_PRES DS824_LAT DS824_LON DS824_STAGE DS824_WIND DS824_PRES TD9636_LAT TD9636_LON TD9636_STAGE TD9636_WIND TD9636_PRES TD9635_LAT TD9635_LON TD9635_WIND TD9635_PRES TD9635_ROCI NEUMANN_LAT NEUMANN_LON NEUMANN_CLASS NEUMANN_WIND NEUMANN_PRES MLC_LAT MLC_LON MLC_CLASS MLC_WIND MLC_PRES USA_GUST BOM_GUST BOM_GUST_PER REUNION_GUST REUNION_GUST_PER USA_SEAHGT USA_SEARAD_NE USA_SEARAD_SE USA_SEARAD_SW USA_SEARAD_NW STORM_SPEED STORM_DIR
1951011S13055 1951 5 SI MM NOT_NAMED 1951-01-11 06:00:00 TS -13.0000 54.7000 main 505 495 O________OO___ jtwc_sh SH101951 -13.0000 54.7000 -1 -13.0000 54.7000 TC 25 -13.0000 54.7000 7 3 270
1951011S13055 1951 5 SI MM NOT_NAMED 1951-01-11 09:00:00 TS -13.0006 54.5438 main 484 482 P________PP___ SH101951 -13.0000 54.5500 -1 -13.0000 54.5500 TC 25 -13.0018 54.5313 7 3 252
1951011S13055 1951 5 SI MM NOT_NAMED 1951-01-11 12:00:00 TS -13.0808 54.4510 reunion main 482 461 O____O___OP___ jtwc_sh SH101951 -13.0000 54.4000 -1 -13.8000 55.0000 99 9.90000 -13.0000 54.4000 TC 25 -13.0028 54.3700 7 3 242
1951011S13055 1951 5 SI MM NOT_NAMED 1951-01-11 15:00:00 TS -13.1191 54.3114 main 461 448 P____P___PP___ SH101951 -13.0000 54.2500 -1 -13.8288 54.7321 99 -13.0000 54.2500 TC 30 -13.0024 54.2238 7 3 251
1951011S13055 1951 5 SI MM NOT_NAMED 1951-01-11 18:00:00 TS -13.1716 54.1725 main 448 427 O____P___OO___ jtwc_sh SH101951 -13.0000 54.1000 -1 -13.8582 54.4623 99 -13.0000 54.1000 TC 35 -13.0000 54.1000 2 3 250
1951011S13055 1951 5 SI MM NOT_NAMED 1951-01-11 21:00:00 TS -13.2212 54.0219 main 427 416 P____P___PP___ SH101951 -13.0000 53.9500 -1 -13.8892 54.1888 99 -13.0000 53.9500 TC 30 -12.9956 53.9987 2 3 260
1951011S13055 1951 5 SI MM NOT_NAMED 1951-01-12 00:00:00 TS -13.2287 53.8499 main 405 395 O____P___OP___ jtwc_sh SH101951 -13.0000 53.8000 -1 -13.9227 53.9097 99 -13.0000 53.8000 TC 25 -12.9919 53.8899 2 3 267
1951011S13055 1951 5 SI MM NOT_NAMED 1951-01-12 03:00:00 TS -13.2379 53.6836 main 395 373 P____P___PP___ SH101951 -12.9999 53.6875 -1 -13.9596 53.6231 99 -12.9999 53.6875 TC 25 -12.9923 53.7362 2 4 267
1951011S13055 1951 5 SI MM NOT_NAMED 1951-01-12 06:00:00 TS -13.2502 53.4568 main 371 329 O____P___OO___ jtwc_sh SH101951 -13.0000 53.5000 -1 -14.0009 53.3273 99 -13.0000 53.5000 TC 25 -13.0000 53.5000 1 6 268
1951011S13055 1951 5 SI MM NOT_NAMED 1951-01-12 09:00:00 TS -13.2606 53.1143 main 329 286 P____P___PP___ SH101951 -12.9925 53.1525 -1 -14.0474 53.0202 99 -12.9925 53.1525 TC 25 -13.0100 53.1321 1 7 268
1951011S13055 1951 5 SI MM NOT_NAMED 1951-01-12 12:00:00 TS -13.2820 52.6956 reunion main 286 244 O____O___OP___ jtwc_sh SH101951 -13.0000 52.7000 -1 -14.1000 52.7000 99 9.90000 -13.0000 52.7000 TC 25 -13.0280 52.6824 1 9 266
1951011S13055 1951 5 SI MM NOT_NAMED 1951-01-12 15:00:00 TS -13.3253 52.2431 main 233 189 P____P___PP___ SH101951 -13.0425 52.2075 -1 -14.1593 52.3659 99 -13.0425 52.2075 TC 25 -13.0569 52.1914 1 9 264
1951011S13055 1951 5 SI MM NOT_NAMED 1951-01-12 18:00:00 TS -13.3812 51.7804 main 189 147 O____P___OO___ jtwc_sh SH101951 -13.1000 51.7000 -1 -14.2248 52.0215 99 -13.1000 51.7000 TC 25 -13.1000 51.7000 1 9 263
1951011S13055 1951 5 SI MM NOT_NAMED 1951-01-12 21:00:00 TS -13.4363 51.3422 main 137 92 P____P___PP___ SH101951 -13.1424 51.2349 -1 -14.2955 51.6714 99 -13.1424 51.2349 TC 25 -13.1648 51.2274 1 8 262
1951011S13055 1951 5 SI MM NOT_NAMED 1951-01-13 00:00:00 TS -13.5033 50.9220 main 92 48 O____P___OP___ jtwc_sh SH101951 -13.2000 50.8000 -1 -14.3706 51.3203 99 -13.2000 50.8000 TC 25 -13.2427 50.7678 1 8 259
1951011S13055 1951 5 SI MM NOT_NAMED 1951-01-13 03:00:00 TS -13.5934 50.5118 main 48 15 P____P___PP___ SH101951 -13.3000 50.3626 -1 -14.4494 50.9729 99 -13.3000 50.3626 TC 25 -13.3242 50.3493 1 8 256
1951011S13055 1951 5 SI MM NOT_NAMED 1951-01-13 06:00:00 TS -13.6828 50.1585 main 15 0 O____P___OO___ jtwc_sh SH101951 -13.4000 50.0000 -1 -14.5311 50.6339 99 -13.4000 50.0000 TC 25 -13.4000 50.0000 1 6 256
1951011S13055 1951 5 SI MM NOT_NAMED 1951-01-13 09:00:00 TS -13.7446 49.8955 main 0 0 P____P___PP___ SH101951 -13.4574 49.7625 -1 -14.6148 50.3080 99 -13.4574 49.7625 TC 25 -13.4486 49.7489 1 5 256
1951011S13055 1951 5 SI MM NOT_NAMED 1951-01-13 12:00:00 TS -13.7980 49.6918 reunion main 0 0 O____O___OP___ jtwc_sh SH101951 -13.5000 49.6000 -1 -14.7000 50.0000 99 9.90000 -13.5000 49.6000 TC 25 -13.4920 49.5673 1 4 254
1951011S13055 1951 5 SI MM NOT_NAMED 1951-01-13 15:00:00 TS -13.8497 49.5097 main 0 0 P____P___PP___ SH101951 -13.5425 49.4425 -1 -14.7746 49.7269 99 -13.5425 49.4425 TC 30 -13.5394 49.4271 1 4 251
1951011S13055 1951 5 SI MM NOT_NAMED 1951-01-13 18:00:00 TS -13.9126 49.3427 main 0 0 O____P___OO___ jtwc_sh SH101951 -13.6000 49.3000 -1 -14.8505 49.4710 99 -13.6000 49.3000 TC 35 -13.6000 49.3000 2 4 245
1951011S13055 1951 5 SI MM NOT_NAMED 1951-01-13 21:00:00 TS -13.9999 49.1719 main 0 0 P____P___PP___ SH101951 -13.6925 49.1500 -1 -14.9290 49.2287 99 -13.6925 49.1500 TC 35 -13.6855 49.1590 2 4 240
1951011S13055 1951 5 SI MM NOT_NAMED 1951-01-14 00:00:00 TS -14.0990 49.0048 main 0 0 O____P___OP___ jtwc_sh SH101951 -13.8000 49.0000 -1 -15.0112 48.9966 99 -13.8000 49.0000 TC 35 -13.7848 49.0224 2 4 238
1951011S13055 1951 5 SI MM NOT_NAMED 1951-01-14 03:00:00 TS -14.1975 48.8439 main 0 0 P____P___PP___ SH101951 -13.9000 48.8650 -1 -15.0982 48.7712 99 -13.9000 48.8650 TC 35 -13.8917 48.8746 2 4 239
1951011S13055 1951 5 SI MM NOT_NAMED 1951-01-14 06:00:00 TS -14.2978 48.6623 main 0 0 O____P___OO___ jtwc_sh SH101951 -14.0000 48.7000 -1 -15.1913 48.5490 99 -14.0000 48.7000 TC 35 -14.0000 48.7000 2 4 244
1951011S13055 1951 5 SI MM NOT_NAMED 1951-01-14 09:00:00 TS -14.3959 48.4307 main 0 0 P____P___PP___ SH101951 -14.1000 48.4650 -1 -15.2915 48.3264 99 -14.1000 48.4650 TC 35 -14.0920 48.4665 2 5 247
1951011S13055 1951 5 SI MM NOT_NAMED 1951-01-14 12:00:00 TS -14.4963 48.1769 reunion main 0 0 O____O___OP___ jtwc_sh SH101951 -14.2000 48.2000 -1 -15.4000 48.1000 99 9.90000 -14.2000 48.2000 TC 35 -14.1852 48.2075 2 5 248
1951011S13055 1951 5 SI MM NOT_NAMED 1951-01-14 15:00:00 TS -14.5989 47.9121 main 0 0 P____P___PP___ SH101951 -14.2925 47.9350 -1 -15.5248 47.8339 99 -14.2925 47.9350 TC 35 -14.2858 47.9447 2 5 246
1951011S13055 1951 5 SI MM NOT_NAMED 1951-01-14 18:00:00 TS -14.7147 47.6658 main 10 0 O____P___OO___ jtwc_sh SH101951 -14.4000 47.7000 -1 -15.6588 47.5631 99 -14.4000 47.7000 TC 35 -14.4000 47.7000 2 5 239
1951011S13055 1951 5 SI MM NOT_NAMED 1951-01-14 21:00:00 TS -14.8559 47.4712 main 10 0 P____P___PP___ SH101951 -14.5424 47.5425 -1 -15.7991 47.2922 99 -14.5424 47.5425 TC 35 -14.5395 47.5074 2 5 231
1951011S13055 1951 5 SI MM NOT_NAMED 1951-01-15 00:00:00 TS -15.0088 47.2902 main 0 0 O____P___OP___ jtwc_sh SH101951 -14.7000 47.4000 -1 -15.9431 47.0259 99 -14.7000 47.4000 TC 35 -14.6923 47.3349 2 5 230
1951011S13055 1951 5 SI MM NOT_NAMED 1951-01-15 03:00:00 TS -15.1629 47.0884 main 0 0 P____P___PP___ SH101951 -14.8575 47.2075 -1 -16.0878 46.7688 99 -14.8575 47.2075 TC 35 -14.8489 47.1699 2 5 233
1951011S13055 1951 5 SI MM NOT_NAMED 1951-01-15 06:00:00 TS -15.3077 46.8814 main 0 0 O____P___OO___ jtwc_sh SH101951 -15.0000 47.0000 -1 -16.2307 46.5256 99 -15.0000 47.0000 TC 35 -15.0000 47.0000 2 5 237
1951011S13055 1951 5 SI MM NOT_NAMED 1951-01-15 09:00:00 TS -15.4222 46.6760 main 0 0 P____P___PP___ SH101951 -15.1000 46.7999 -1 -16.3690 46.3011 99 -15.1000 46.7999 TC 35 -15.1200 46.8030 2 5 240
1951011S13055 1951 5 SI MM NOT_NAMED 1951-01-15 12:00:00 TS -15.5338 46.4750 reunion main 10 0 O____O___OP___ jtwc_sh SH101951 -15.2000 46.6000 -1 -16.5000 46.1000 99 9.90000 -15.2000 46.6000 TC 35 -15.2350 46.5998 2 5 239
1951011S13055 1951 5 SI MM NOT_NAMED 1951-01-15 15:00:00 TS -15.6555 46.2774 main 0 0 P____P___PP___ SH101951 -15.3350 46.4000 -1 -16.5945 45.9131 99 -15.3350 46.4000 TC 35 -15.3575 46.3967 2 5 235
1951011S13055 1951 5 SI MM NOT_NAMED 1951-01-15 18:00:00 TS -15.7951 46.0867 main 0 0 O____P___OO___ jtwc_sh SH101951 -15.5000 46.2000 -1 -16.6804 45.7468 99 -15.5000 46.2000 TC 35 -15.5000 46.2000 2 5 231
1951011S13055 1951 5 SI MM NOT_NAMED 1951-01-15 21:00:00 TS -15.9556 45.8980 main 0 0 P____P___PP___ SH101951 -15.6925 45.9925 -1 -16.7629 45.6013 99 -15.6925 45.9925 TC 35 -15.6744 46.0057 2 5 226
1951011S13055 1951 5 SI MM NOT_NAMED 1951-01-16 00:00:00 TS -16.1292 45.7243 main 0 0 O____P___OP___ jtwc_sh SH101951 -15.9000 45.8000 -1 -16.8469 45.4772 99 -15.9000 45.8000 TC 35 -15.8700 45.8201 2 5 222
1951011S13055 1951 5 SI MM NOT_NAMED 1951-01-16 03:00:00 TS -16.3045 45.5735 main 0 0 P____P___PP___ SH101951 -16.1000 45.6350 -1 -16.9376 45.3746 99 -16.1000 45.6350 TC 35 -16.0806 45.6494 2 4 217
1951011S13055 1951 5 SI MM NOT_NAMED 1951-01-16 06:00:00 TS -16.4850 45.4485 main 0 0 O____P___OO___ jtwc_sh SH101951 -16.3000 45.5000 -1 -17.0400 45.2940 99 -16.3000 45.5000 TC 35 -16.3000 45.5000 2 4 211
1951011S13055 1951 5 SI MM NOT_NAMED 1951-01-16 09:00:00 TS -16.6654 45.3487 main 0 0 P____P___PP___ SH101951 -16.4925 45.3924 -1 -17.1591 45.2357 99 -16.4925 45.3924 TC 35 -16.5177 45.3742 2 4 205
1951011S13055 1951 5 SI MM NOT_NAMED 1951-01-16 12:00:00 TS -16.8606 45.2675 reunion main 0 0 O____O___OP___ jtwc_sh SH101951 -16.7000 45.3000 -1 -17.3000 45.2000 99 9.90000 -16.7000 45.3000 TC 35 -16.7424 45.2698 2 5 201
1951011S13055 1951 5 SI MM NOT_NAMED 1951-01-16 15:00:00 TS -17.0882 45.1788 main 0 0 P____P___PP___ SH101951 -16.9500 45.2000 -1 -17.4818 45.1345 99 -16.9500 45.2000 TC 35 -16.9709 45.1805 2 5 200
1951011S13055 1951 5 SI MM NOT_NAMED 1951-01-16 18:00:00 TS -17.3213 45.0971 main 0 0 O____P___OO___ jtwc_sh SH101951 -17.2000 45.1000 -1 -17.6852 45.0885 99 -17.2000 45.1000 TC 35 -17.2000 45.1000 2 5 201
1951011S13055 1951 5 SI MM NOT_NAMED 1951-01-16 21:00:00 TS -17.5235 45.0024 main 0 0 P____P___PP___ SH101951 -17.4000 44.9925 -1 -17.9055 45.0669 99 -17.4000 44.9925 TC 35 -17.3884 44.9576 2 4 202
1951011S13055 1951 5 SI MM NOT_NAMED 1951-01-17 00:00:00 TS -17.7301 44.9265 main 0 0 O____P___OP___ jtwc_sh SH101951 -17.6000 44.9000 -1 -18.1381 45.0747 99 -17.6000 44.9000 TC 35 -17.5823 44.8312 2 5 196
1951011S13055 1951 5 SI MM NOT_NAMED 1951-01-17 03:00:00 TS -17.9534 44.8729 main 0 0 P____P___PP___ SH101951 -17.8125 44.8052 -1 -18.3786 45.1168 99 -17.8125 44.8052 TC 35 -17.8101 44.7642 2 5 181
1951011S13055 1951 5 SI MM NOT_NAMED 1951-01-17 06:00:00 TS -18.2305 44.8996 main 0 0 O____P___OO___ jtwc_sh SH101951 -18.1000 44.8000 -1 -18.6221 45.1984 99 -18.1000 44.8000 TC 35 -18.1000 44.8000 2 7 167
1951011S13055 1951 5 SI MM NOT_NAMED 1951-01-17 09:00:00 TS -18.6075 45.0411 main 0 0 P____P___PP___ SH101951 -18.5199 44.9326 -1 -18.8641 45.3244 99 -18.5199 44.9326 TC 35 -18.5260 44.9748 2 9 155
1951011S13055 1951 5 SI MM NOT_NAMED 1951-01-17 12:00:00 TS -19.0269 45.2889 reunion main 0 0 O____O___OP___ jtwc_sh SH101951 -19.0000 45.2000 -1 -19.1000 45.5000 99 9.90000 -19.0000 45.2000 TC 35 -19.0076 45.2558 2 10 147
1951011S13055 1951 5 SI MM NOT_NAMED 1951-01-17 15:00:00 TS -19.4471 45.6235 main 0 0 P____P___PP___ SH101951 -19.4801 45.5697 -1 -19.3429 45.7453 99 -19.4801 45.5697 TC 35 -19.4854 45.6091 2 11 139
1951011S13055 1951 5 SI MM NOT_NAMED 1951-01-17 18:00:00 TS -19.8214 46.0113 main 0 0 O____P___OO___ jtwc_sh SH101951 -19.9000 46.0000 -1 -19.5854 46.0452 99 -19.9000 46.0000 TC 35 -19.9000 46.0000 2 10 132
1951011S13055 1951 5 SI MM NOT_NAMED 1951-01-17 21:00:00 TS -20.0990 46.3970 main 0 0 P____P___PP___ SH101951 -20.1949 46.4002 -1 -19.8217 46.3876 99 -20.1949 46.4002 TC 35 -20.1844 46.4000 2 9 124
1951011S13055 1951 5 SI MM NOT_NAMED 1951-01-18 00:00:00 TS -20.3109 46.7957 main 0 0 O____P___OP___ jtwc_sh SH101951 -20.4000 46.8000 -1 -20.0455 46.7600 99 -20.4000 46.8000 TC 35 -20.3981 46.8229 2 9 117
1951011S13055 1951 5 SI MM NOT_NAMED 1951-01-18 03:00:00 TS -20.4859 47.2074 main 0 0 P____P___PP___ SH101951 -20.5650 47.2226 -1 -20.2511 47.1502 99 -20.5650 47.2226 TC 35 -20.5626 47.2343 2 8 114
1951011S13055 1951 5 SI MM NOT_NAMED 1951-01-18 06:00:00 TS -20.6331 47.5863 main 0 0 O____P___OO___ jtwc_sh SH101951 -20.7000 47.6000 -1 -20.4325 47.5454 99 -20.7000 47.6000 TC 35 -20.7000 47.6000 2 7 115
1951011S13055 1951 5 SI MM NOT_NAMED 1951-01-18 09:00:00 TS -20.7893 47.8942 main 0 0 P____P___PP___ SH101951 -20.8574 47.8801 -1 -20.5840 47.9329 99 -20.8574 47.8801 TC 35 -20.8583 47.8838 2 6 119
1951011S13055 1951 5 SI MM NOT_NAMED 1951-01-18 12:00:00 TS -20.9236 48.1545 reunion main 0 0 O____O___OP___ jtwc_sh SH101951 -21.0000 48.1000 -1 -20.7000 48.3000 99 9.90000 -21.0000 48.1000 TC 35 -20.9944 48.1179 2 5 117
1951011S13055 1951 5 SI MM NOT_NAMED 1951-01-18 15:00:00 TS -21.0288 48.3962 main 0 0 P____P___PP___ SH101951 -21.1150 48.3150 -1 -20.7768 48.6366 99 -21.1150 48.3150 TC 35 -21.1084 48.3181 2 5 113
1951011S13055 1951 5 SI MM NOT_NAMED 1951-01-18 18:00:00 TS -21.1045 48.6109 main 23 23 O____P___OO___ jtwc_sh SH101951 -21.2000 48.5000 -1 -20.8179 48.9437 99 -21.2000 48.5000 TC 35 -21.2000 48.5000 2 4 108
1951011S13055 1951 5 SI MM NOT_NAMED 1951-01-18 21:00:00 TS -21.1526 48.8028 main 47 47 P____P___PP___ SH101951 -21.2574 48.6501 -1 -20.8283 49.2256 99 -21.2574 48.6501 TC 35 -21.2673 48.6856 2 4 103
1951011S13055 1951 5 SI MM NOT_NAMED 1951-01-19 00:00:00 TS -21.1820 48.9860 main 66 66 O____P___OP___ jtwc_sh SH101951 -21.3000 48.8000 -1 -20.8133 49.4862 99 -21.3000 48.8000 TC 35 -21.3148 48.8578 2 4 98
1951011S13055 1951 5 SI MM NOT_NAMED 1951-01-19 03:00:00 TS -21.2044 49.1853 main 85 85 P____P___PP___ SH101951 -21.3425 48.9925 -1 -20.7779 49.7298 99 -21.3425 48.9925 TC 35 -21.3548 49.0262 2 4 104
1951011S13055 1951 5 SI MM NOT_NAMED 1951-01-19 06:00:00 TS -21.2654 49.3521 main 108 108 O____P___OO___ jtwc_sh SH101951 -21.4000 49.2000 -1 -20.7272 49.9605 99 -21.4000 49.2000 TC 35 -21.4000 49.2000 2 3 119
1951011S13055 1951 5 SI MM NOT_NAMED 1951-01-19 09:00:00 TS -21.3752 49.5120 main 122 122 P____P___PP___ SH101951 -21.5000 49.4000 -1 -20.6663 50.1824 99 -21.5000 49.4000 TC 35 -21.4800 49.4008 2 4 130
1951011S13055 1951 5 SI MM NOT_NAMED 1951-01-19 12:00:00 TS -21.5123 49.6638 reunion main 145 145 O____O___OP___ jtwc_sh SH101951 -21.6000 49.6000 -1 -20.6000 50.4000 99 9.90000 -21.6000 49.6000 TC 35 -21.5651 49.6073 2 4 136
1951011S13055 1951 5 SI MM NOT_NAMED 1951-01-19 15:00:00 TS -21.6575 49.8084 main 158 158 P________PP___ SH101951 -21.6650 49.8075 -1 99 -21.6650 49.8075 TC 35 -21.6425 49.8102 2 4 121
1951011S13055 1951 5 SI MM NOT_NAMED 1951-01-19 18:00:00 TS -21.7000 50.0000 main 178 178 O________OO___ jtwc_sh SH101951 -21.7000 50.0000 -1 99 -21.7000 50.0000 TC 35 -21.7000 50.0000 2 3 100
1951011S13055 1951 5 SI MM NOT_NAMED 1951-01-19 21:00:00 TS -21.7135 50.1612 main 199 199 P________PP___ SH101951 -21.7075 50.1575 -1 99 -21.7075 50.1575 TC 35 -21.7255 50.1685 2 3 92
1951011S13055 1951 5 SI MM NOT_NAMED 1951-01-20 00:00:00 TS -21.7100 50.3075 main 209 209 O________OP___ jtwc_sh SH101951 -21.7000 50.3000 -1 99 -21.7000 50.3000 TC 35 -21.7299 50.3226 2 3 89
1951011S13055 1951 5 SI MM NOT_NAMED 1951-01-20 03:00:00 TS -21.7064 50.4551 main 229 229 P________PP___ SH101951 -21.7000 50.4500 -1 99 -21.7000 50.4500 TC 35 -21.7193 50.4654 2 3 88
1951011S13055 1951 5 SI MM NOT_NAMED 1951-01-20 06:00:00 TS -21.7000 50.6000 reunion main 240 240 O________OO___ jtwc_sh SH101951 -21.7000 50.6000 -1 99 -21.7000 50.6000 TC 35 -21.7000 50.6000 2 3 89
1951011S13055 1951 5 SI MM NOT_NAMED 1951-01-20 09:00:00 TS -21.7018 50.7504 main 260 260 P________PP___ SH101951 -21.7075 50.7575 -1 99 -21.7075 50.7575 TC 35 -21.6903 50.7362 2 3 88
1951011S13055 1951 5 SI MM NOT_NAMED 1951-01-20 12:00:00 TS -21.6908 50.8883 main 270 270 O________OP___ jtwc_sh SH101951 -21.7000 50.9000 -1 -21.7000 50.9000 TC 35 -21.6725 50.8650 2 2 77
1951011S13055 1951 5 SI MM NOT_NAMED 1951-01-20 15:00:00 TS -21.6478 51.0004 main 277 277 P________PP___ SH101951 -21.6500 51.0075 -1 -21.6500 51.0075 TC 35 -21.6434 50.9862 2 2 65
1951011S13055 1951 5 SI MM NOT_NAMED 1951-01-20 18:00:00 TS -21.6000 51.1000 main 287 287 O________OO___ jtwc_sh SH101951 -21.6000 51.1000 -1 -21.6000 51.1000 TC 35 -21.6000 51.1000 2 2 81
1951011S13055 1951 5 SI MM NOT_NAMED 1951-01-20 21:00:00 TS -21.6169 51.2146 main 297 297 P________PP___ SH101951 -21.6150 51.1999 -1 -21.6150 51.1999 TC 30 -21.6206 51.2440 2 2 91
1951011S13055 1951 5 SI MM NOT_NAMED 1951-01-21 00:00:00 TS -21.6050 51.3252 main 307 307 O________OP___ jtwc_sh SH101951 -21.6000 51.3000 -1 -21.6000 51.3000 TC 25 -21.6149 51.3756 2 2 66
1951011S13055 1951 5 SI MM NOT_NAMED 1951-01-21 03:00:00 TS -21.5256 51.4382 main 315 315 P________PP___ SH101951 -21.5250 51.4226 -1 -21.5250 51.4226 TC 25 -21.5268 51.4693 2 3 28
1951011S13055 1951 5 SI MM NOT_NAMED 1951-01-21 06:00:00 TS -21.3000 51.5000 reunion main 316 302 O________OO___ jtwc_sh SH101951 -21.3000 51.5000 -1 -21.3000 51.5000 TC 25 -21.3000 51.5000 7 9 9
1951011S13055 1951 5 SI MM NOT_NAMED 1951-01-21 09:00:00 TS -20.6478 51.5946 main 299 284 P________PP___ SH101951 -20.8749 51.4952 -1 -20.8749 51.4952 TC 25 -20.8601 51.4930 7 13 2
1951011S13055 1951 5 SI MM NOT_NAMED 1951-01-21 12:00:00 TS -19.9606 51.5513 main 284 240 O________OP___ jtwc_sh SH101951 -20.3000 51.4000 -1 -20.3000 51.4000 TC 25 -20.2841 51.4158 7 14 353
1951011S13055 1951 5 SI MM NOT_NAMED 1951-01-21 15:00:00 TS -19.3059 51.4080 main 240 197 P________PP___ SH101951 -19.6573 51.2602 -1 -19.6573 51.2602 TC 25 -19.6411 51.2557 7 13 342
1951011S13055 1951 5 SI MM NOT_NAMED 1951-01-21 18:00:00 TS -18.7197 51.1362 main 187 137 O________OO___ jtwc_sh SH101951 -19.0000 51.0000 -1 -19.0000 51.0000 TC 25 -19.0000 51.0000 7 12 327
1951011S13055 1951 5 SI MM NOT_NAMED 1951-01-21 21:00:00 TS -18.2714 50.7079 main 137 77 P________PP___ SH101951 -18.4276 50.5874 -1 -18.4276 50.5874 TC 25 -18.4049 50.5967 7 12 315
1951011S13055 1951 5 SI MM NOT_NAMED 1951-01-22 00:00:00 TS -17.8484 50.2193 main 74 38 O________OP___ jtwc_sh SH101951 -17.9000 50.1000 -1 -17.9000 50.1000 TC 25 -17.8316 50.1122 7 13 312
1951011S13055 1951 5 SI MM NOT_NAMED 1951-01-22 03:00:00 TS -17.4248 49.7300 main 31 0 P________PP___ SH101951 -17.3476 49.6123 -1 -17.3476 49.6123 TC 25 -17.3173 49.6218 7 12 311
1951011S13055 1951 5 SI MM NOT_NAMED 1951-01-22 06:00:00 TS -17.0750 49.3000 reunion main 0 0 O________OO___ jtwc_sh SH101951 -16.9000 49.2000 -1 -16.9000 49.2000 TC 25 -16.9000 49.2000 1 9 310
1951011S13055 1951 5 SI MM NOT_NAMED 1951-01-22 09:00:00 TS -16.8517 49.0238 main 0 0 P________PP___ SH101951 -16.6473 48.9554 -1 -16.6473 48.9554 TC 25 -16.6318 48.9640 1 6 309
1951011S13055 1951 5 SI MM NOT_NAMED 1951-01-22 12:00:00 TS -16.7012 48.8133 main 0 0 O________OP___ jtwc_sh SH101951 -16.5000 48.8000 -1 -16.5000 48.8000 TC 25 -16.4592 48.7997 1 5 307
1951011S13055 1951 5 SI MM NOT_NAMED 1951-01-22 15:00:00 TS -16.5624 48.6174 main 0 0 P________PP___ SH101951 -16.3574 48.6576 -1 -16.3574 48.6576 TC 30 -16.3320 48.6604 1 5 307
1951011S13055 1951 5 SI MM NOT_NAMED 1951-01-22 18:00:00 TS -16.4147 48.4089 main 0 0 O________OO___ jtwc_sh SH101951 -16.2000 48.5000 -1 -16.2000 48.5000 TC 35 -16.2000 48.5000 2 6 309
1951011S13055 1951 5 SI MM NOT_NAMED 1951-01-22 21:00:00 TS -16.1988 48.1509 main 0 0 P________PP___ SH101951 -15.9575 48.2725 -1 -15.9575 48.2725 TC 35 -15.9606 48.2860 2 7 310
1951011S13055 1951 5 SI MM NOT_NAMED 1951-01-23 00:00:00 TS -15.9761 47.8599 main 0 0 O________OP___ jtwc_sh SH101951 -15.7000 48.0000 -1 -15.7000 48.0000 TC 35 -15.7120 48.0397 2 7 306
1951011S13055 1951 5 SI MM NOT_NAMED 1951-01-23 03:00:00 TS -15.7765 47.5549 main 0 0 P________PP___ SH101951 -15.4699 47.7300 -1 -15.4699 47.7300 TC 35 -15.4824 47.7485 2 7 299
1951011S13055 1951 5 SI MM NOT_NAMED 1951-01-23 06:00:00 TS -15.6250 47.2000 reunion main 0 0 O________OO___ jtwc_sh SH101951 -15.3000 47.4000 -1 -15.3000 47.4000 TC 35 -15.3000 47.4000 2 8 287
1951011S13055 1951 5 SI MM NOT_NAMED 1951-01-23 09:00:00 TS -15.5509 46.7646 main 0 0 P________PP___ SH101951 -15.2275 46.9801 -1 -15.2275 46.9801 TC 35 -15.1956 46.9950 2 9 277
1951011S13055 1951 5 SI MM NOT_NAMED 1951-01-23 12:00:00 TS -15.5171 46.2782 main 15 15 O________OP___ jtwc_sh SH101951 -15.2000 46.5000 -1 -15.2000 46.5000 TC 35 -15.1399 46.5328 2 10 274
1951011S13055 1951 5 SI MM NOT_NAMED 1951-01-23 15:00:00 TS -15.4842 45.7755 main 39 39 P________PP___ SH101951 -15.1499 46.0150 -1 -15.1499 46.0150 TC 35 -15.1143 46.0293 2 10 273
1951011S13055 1951 5 SI MM NOT_NAMED 1951-01-23 18:00:00 TS -15.4585 45.2511 main 55 55 O________OO___ jtwc_sh SH101951 -15.1000 45.5000 -1 -15.1000 45.5000 TC 35 -15.1000 45.5000 2 10 273
1951011S13055 1951 5 SI MM NOT_NAMED 1951-01-23 21:00:00 TS -15.4271 44.7100 main 79 79 P________PP___ SH101951 -15.0424 44.9575 -1 -15.0424 44.9575 TC 35 -15.0640 44.9473 2 11 273
1951011S13055 1951 5 SI MM NOT_NAMED 1951-01-24 00:00:00 TS -15.4082 44.1635 main 102 102 O________OP___ jtwc_sh SH101951 -15.0000 44.4000 -1 -15.0000 44.4000 TC 35 -15.0354 44.3775 2 11 271
1951011S13055 1951 5 SI MM NOT_NAMED 1951-01-24 03:00:00 TS -15.4109 43.6217 main 132 132 P________PP___ SH101951 -14.9925 43.8276 -1 -14.9925 43.8276 TC 35 -15.0140 43.8191 2 10 269
1951011S13055 1951 5 SI MM NOT_NAMED 1951-01-24 06:00:00 TS -15.4250 43.1250 reunion main 171 171 O________OO___ jtwc_sh SH101951 -15.0000 43.3000 -1 -15.0000 43.3000 TC 35 -15.0000 43.3000 2 9 268
1951011S13055 1951 5 SI MM NOT_NAMED 1951-01-24 09:00:00 TS -15.4362 42.7180 main 207 177 P________PP___ SH101951 -14.9998 42.8775 -1 -14.9998 42.8775 TC 35 -14.9839 42.8691 2 7 268
1951011S13055 1951 5 SI MM NOT_NAMED 1951-01-24 12:00:00 TS -15.4511 42.3572 main 180 140 O________OP___ jtwc_sh SH101951 -15.0000 42.5000 -1 -15.0000 42.5000 TC 35 -14.9764 42.4774 2 7 267
1951011S13055 1951 5 SI MM NOT_NAMED 1951-01-24 15:00:00 TS -15.4662 42.0113 main 140 111 P________PP___ SH101951 -14.9923 42.1224 -1 -14.9923 42.1224 TC 35 -14.9808 42.0971 2 7 266
1951011S13055 1951 5 SI MM NOT_NAMED 1951-01-24 18:00:00 TS -15.4936 41.6487 main 102 65 O________OO___ jtwc_sh SH101951 -15.0000 41.7000 -1 -15.0000 41.7000 TC 35 -15.0000 41.7000 2 8 264
1951011S13055 1951 5 SI MM NOT_NAMED 1951-01-24 21:00:00 TS -15.5426 41.2020 main 65 24 P________PP___ SH101951 -15.0427 41.1501 -1 -15.0427 41.1501 TC 35 -15.0321 41.1899 2 9 270
1951011S13055 1951 5 SI MM NOT_NAMED 1951-01-25 00:00:00 TS -15.5010 40.7312 main 15 0 O________OP___ jtwc_sh SH101951 -15.1000 40.6000 -1 -15.1000 40.6000 TC 35 -15.0783 40.6678 2 9 277
1951011S13055 1951 5 SI MM NOT_NAMED 1951-01-25 03:00:00 TS -15.4410 40.2803 main 0 0 P________PP___ SH101951 -15.1499 40.1400 -1 -15.1499 40.1400 TC 35 -15.1353 40.1867 2 8 280
1951011S13055 1951 5 SI MM NOT_NAMED 1951-01-25 06:00:00 TS -15.3615 39.8846 reunion main 0 0 O________OO___ jtwc_sh SH101951 -15.2000 39.8000 -1 -15.2000 39.8000 TC 35 -15.2000 39.8000 2 7 286
1951011S13055 1951 5 SI MM NOT_NAMED 1951-01-25 09:00:00 TS -15.2507 39.5934 main 0 0 P________PP___ SH101951 -15.2424 39.6050 -1 -15.2424 39.6050 TC 30 -15.2672 39.5702 2 4 277
1951011S13055 1951 5 SI MM NOT_NAMED 1951-01-25 12:00:00 TS -15.3139 39.4791 main 0 0 O________OP___ jtwc_sh SH101951 -15.3000 39.5000 -1 -15.3000 39.5000 TC 25 -15.3418 39.4374 2 3 233
1951011S13055 1951 5 SI MM NOT_NAMED 1951-01-25 15:00:00 TS -15.4068 39.3820 main 0 0 P________PP___ SH101951 -15.4000 39.3925 -1 -15.4000 39.3925 TC 25 -15.4205 39.3609 2 3 223
1951011S13055 1951 5 SI MM NOT_NAMED 1951-01-25 18:00:00 TS -15.5000 39.3000 main 0 0 O________OO___ jtwc_sh SH101951 -15.5000 39.3000 -1 -15.5000 39.3000 TC 25 -15.5000 39.3000 7 2 229
1951011S13055 1951 5 SI MM NOT_NAMED 1951-01-25 21:00:00 TS -15.5569 39.2030 main 0 0 P________PP___ SH101951 -15.5500 39.2000 -1 -15.5500 39.2000 TC 25 -15.5708 39.2090 7 2 238
1951011S13055 1951 5 SI MM NOT_NAMED 1951-01-26 00:00:00 TS -15.6141 39.1074 main 0 0 O________OP___ jtwc_sh SH101951 -15.6000 39.1000 -1 -15.6000 39.1000 TC 25 -15.6424 39.1223 7 2 231
1951011S13055 1951 5 SI MM NOT_NAMED 1951-01-26 03:00:00 TS -15.7009 39.0182 main 0 0 P________PP___ SH101951 -15.6925 39.0150 -1 -15.6925 39.0150 TC 25 -15.7177 39.0246 7 3 227
1951011S13055 1951 5 SI MM NOT_NAMED 1951-01-26 06:00:00 TS -15.8000 38.9000 main 0 0 O________OO___ jtwc_sh SH101951 -15.8000 38.9000 -1 -15.8000 38.9000 TC 25 -15.8000 38.9000 7 3 236
1951011S13055 1951 5 SI MM NOT_NAMED 1951-01-26 09:00:00 TS -15.8963 38.7196 main 0 0 P________PP___ SH101951 -15.9000 38.7150 -1 -15.9000 38.7150 TC 25 -15.8888 38.7287 7 4 243
1951011S13055 1951 5 SI MM NOT_NAMED 1951-01-26 12:00:00 TS -15.9950 38.5100 main 0 0 O________OP___ jtwc_sh SH101951 -16.0000 38.5000 -1 -16.0000 38.5000 TC 25 -15.9851 38.5300 7 4 243
1951011S13055 1951 5 SI MM NOT_NAMED 1951-01-26 15:00:00 TS -16.0963 38.3054 main 0 0 P________PP___ SH101951 -16.1000 38.3000 -1 -16.1000 38.3000 TC 25 -16.0888 38.3162 7 4 243
1951011S13055 1951 5 SI MM NOT_NAMED 1951-01-26 18:00:00 TS -16.2000 38.1000 main 0 0 O________OO___ jtwc_sh SH101951 -16.2000 38.1000 -1 -16.2000 38.1000 TC 25 -16.2000 38.1000 7 4 242
1951011S13055 1951 5 SI MM NOT_NAMED 1951-01-26 21:00:00 TS -16.2995 37.9067 main 0 0 P________PP___ SH101951 -16.2925 37.9000 -1 -16.2925 37.9000 TC 25 -16.3135 37.9201 7 4 240
1951011S13055 1951 5 SI MM NOT_NAMED 1951-01-27 00:00:00 TS -16.4116 37.7124 main 0 0 O________OP___ jtwc_sh SH101951 -16.4000 37.7000 -1 -16.4000 37.7000 TC 25 -16.4347 37.7372 7 4 236
1951011S13055 1951 5 SI MM NOT_NAMED 1951-01-27 03:00:00 TS -16.5494 37.5219 main 0 0 P________PP___ SH101951 -16.5424 37.5150 -1 -16.5424 37.5150 TC 25 -16.5635 37.5357 7 5 234
1951011S13055 1951 5 SI MM NOT_NAMED 1951-01-27 06:00:00 TS -16.7000 37.3000 main 0 0 O________OO___ jtwc_sh SH101951 -16.7000 37.3000 -1 -16.7000 37.3000 TC 25 -16.7000 37.3000 7 6 238
1951011S13055 1951 5 SI MM NOT_NAMED 1951-01-27 09:00:00 TS -16.8479 37.0213 main 0 0 P________PP___ SH101951 -16.8500 37.0225 -1 -16.8500 37.0225 TC 25 -16.8438 37.0191 7 6 243
1951011S13055 1951 5 SI MM NOT_NAMED 1951-01-27 12:00:00 TS -16.9977 36.7002 main 0 0 O________OP___ jtwc_sh SH101951 -17.0000 36.7000 -1 -17.0000 36.7000 TC 25 -16.9932 36.7006 7 7 245
1951011S13055 1951 5 SI MM NOT_NAMED 1951-01-27 15:00:00 TS -17.1487 36.3557 main 0 0 P________PP___ SH101951 -17.1501 36.3551 -1 -17.1501 36.3551 TC 25 -17.1459 36.3568 7 7 246
1951011S13055 1951 5 SI MM NOT_NAMED 1951-01-27 18:00:00 TS -17.3000 36.0000 main 0 O________OO___ jtwc_sh SH101951 -17.3000 36.0000 -1 -17.3000 36.0000 TC 25 -17.3000 36.0000 7 7 246

About IBTrACS Database

This database is a web-friendly format of International Best Track Archive for Climate Stewardship (IBTrACS), a global best track data archive curated by NOAA dating back to 1842.

Updated: 2021-10-08